»·PEaware :: N416JK KMRY-KLVK

N416JK :: KMRY-KLVK

FLIGHT INFORMATION

Flight Status: Arrived
Operator: Privately registered:
United States
More flights under this callsign
Pilot: John K. (4202)
Aircraft: Unknown
(EPIC)
More flights by this aircraft type
Origin: KMRY Monterey Peninsula
United States
Destination: KLVK Livermore Mun
United States
More flights between these airports :: More routes between these airports
Route: SNS V111 MOD
File this flight plan on PilotEdge
Remarks:
Altitude:
(Current/Filed)
7,000ft
Speed:
(Current/Filed)
250kts
Departed: 05-Nov-19 12:34 PM
Arrived: 05-Nov-19 01:17 PM
Distance/Time
Traveled:
66nm/0:43
Distance/Time
To Go:
Arrived

Flight Plot

Page will automatically refresh every two minutes.

Flight plan parsing failed; only flown route is shown


Map Options




Map Legend


Flown Route
Filed Route
Departure Airport
Arrival Airport
Navaid (VOR, NDB)
Fix

Horizontal Profiles

Position Reports

Time Latitude Longitude Heading Altitude Ground
Speed
05-Nov-19 12:22 36.588798 -121.856960 360 259ft 0kts
05-Nov-19 12:23 36.588798 -121.856960 360 259ft 0kts
05-Nov-19 12:24 36.588798 -121.856960 360 259ft 0kts
05-Nov-19 12:25 36.588798 -121.856960 360 259ft 0kts
05-Nov-19 12:26 36.588798 -121.856960 360 259ft 0kts
05-Nov-19 12:27 36.588798 -121.856960 360 259ft 0kts
05-Nov-19 12:28 36.588798 -121.856960 360 259ft 0kts
05-Nov-19 12:29 36.588883 -121.856932 32 259ft 10kts
05-Nov-19 12:30 36.585344 -121.842317 112 259ft 37kts
05-Nov-19 12:31 36.582899 -121.835175 94 259ft 0kts
05-Nov-19 12:32 36.582882 -121.834218 81 259ft 39kts
05-Nov-19 12:33 36.586648 -121.843365 293 259ft 143kts
05-Nov-19 12:34 36.608543 -121.892584 315 1417ft 173kts
05-Nov-19 12:35 36.655850 -121.913672 341 2468ft 191kts
05-Nov-19 12:36 36.706816 -121.934931 341 3918ft 196kts
05-Nov-19 12:37 36.755303 -121.921536 51 5385ft 188kts
05-Nov-19 12:38 36.751927 -121.864441 125 6836ft 173kts
05-Nov-19 12:39 36.731058 -121.800593 110 7006ft 237kts
05-Nov-19 12:40 36.703580 -121.718721 112 6984ft 268kts
05-Nov-19 12:41 36.675095 -121.631720 96 6964ft 272kts
05-Nov-19 12:42 36.722495 -121.567128 30 6981ft 269kts
05-Nov-19 12:43 36.787404 -121.521713 29 6963ft 267kts
05-Nov-19 12:44 36.852438 -121.478127 28 6962ft 262kts
05-Nov-19 12:45 36.915962 -121.435868 28 6962ft 257kts
05-Nov-19 12:46 36.978977 -121.393882 27 6961ft 256kts
05-Nov-19 12:47 37.041628 -121.352075 28 6971ft 255kts
05-Nov-19 12:48 37.103876 -121.310931 28 6972ft 256kts
05-Nov-19 12:49 37.166333 -121.269216 28 6986ft 255kts
05-Nov-19 12:50 37.228767 -121.227340 29 6991ft 254kts
05-Nov-19 12:51 37.290831 -121.185601 29 7000ft 254kts
05-Nov-19 12:52 37.353262 -121.143524 29 7000ft 255kts
05-Nov-19 12:53 37.415715 -121.101441 29 7000ft 255kts
05-Nov-19 12:54 37.478197 -121.059166 29 7006ft 255kts
05-Nov-19 12:55 37.540500 -121.016957 29 6999ft 255kts
05-Nov-19 12:56 37.584087 -120.987365 29 6999ft 255kts
05-Nov-19 12:57 37.614190 -120.986968 331 6994ft 264kts
05-Nov-19 12:58 37.629830 -121.017551 286 6905ft 249kts
05-Nov-19 12:59 37.640566 -121.080207 281 5894ft 256kts
05-Nov-19 13:00 37.648428 -121.141719 279 5162ft 248kts
05-Nov-19 13:01 37.652611 -121.177783 279 4780ft 244kts
05-Nov-19 13:02 37.657271 -121.218374 279 4346ft 236kts
05-Nov-19 13:03 37.661134 -121.251395 276 3957ft 227kts
05-Nov-19 13:04 37.665539 -121.289494 277 3564ft 229kts
05-Nov-19 13:05 37.671708 -121.343115 280 3399ft 204kts
05-Nov-19 13:06 37.676869 -121.386546 278 3283ft 171kts
05-Nov-19 13:07 37.681527 -121.426183 277 3226ft 162kts
05-Nov-19 13:08 37.686024 -121.465240 280 3220ft 165kts
05-Nov-19 13:09 37.690431 -121.508444 274 3219ft 172kts
05-Nov-19 13:10 37.691446 -121.563160 272 3196ft 177kts
05-Nov-19 13:11 37.692117 -121.625597 272 3168ft 176kts
05-Nov-19 13:12 37.692630 -121.679746 272 2500ft 135kts
05-Nov-19 13:13 37.693037 -121.723252 271 1808ft 117kts
05-Nov-19 13:14 37.693387 -121.763621 270 1184ft 113kts
05-Nov-19 13:15 37.693817 -121.802512 271 579ft 107kts
05-Nov-19 13:16 37.694567 -121.820488 352 403ft 6kts
05-Nov-19 13:17 37.695100 -121.821737 276 403ft 0kts
05-Nov-19 13:18 37.695100 -121.821737 276 403ft 0kts

Navigation Log

Ident Type
Flight plan parsing failed, navigation log unavailable